Time;durP1;ratioP1;P1;durP2;ratioP2;P2;SDS_P1;SDS_P2;PMS_P1;PMS_P2;Temp;Humidity;BMP_temperature;BMP_pressure;BME280_temperature;BME280_humidity;BME280_pressure;Samples;Min_cycle;Max_cycle;Signal;HPM_P1;HPM_P2
2022/03/26 00:00:18;;;;;;;128.65;65.00;;;;;;;7.98;100.00;102958.09;10154671;28;20051;-66
2022/03/26 00:05:15;;;;;;;125.97;64.18;;;;;;;7.95;100.00;102947.72;10138841;28;20141;-67
2022/03/26 00:10:12;;;;;;;129.13;68.32;;;;;;;7.99;100.00;102932.53;10153752;28;20089;-67
2022/03/26 00:15:10;;;;;;;124.45;63.25;;;;;;;8.04;100.00;102918.19;10130679;28;20054;-67
2022/03/26 00:20:07;;;;;;;118.85;62.72;;;;;;;8.04;100.00;102912.72;10140349;28;20047;-67
2022/03/26 00:25:05;;;;;;;105.95;56.50;;;;;;;8.06;100.00;102919.56;10129724;28;20061;-67
2022/03/26 00:30:05;;;;;;;117.28;61.45;;;;;;;8.09;100.00;102916.34;10146273;28;20054;-68
2022/03/26 00:35:02;;;;;;;113.18;61.60;;;;;;;8.13;100.00;102909.34;10152035;28;20038;-68
2022/03/26 00:39:58;;;;;;;113.50;60.53;;;;;;;8.05;100.00;102915.19;10153114;28;20165;-67
2022/03/26 00:44:55;;;;;;;115.20;60.45;;;;;;;8.11;100.00;102911.47;10147042;28;20651;-67
2022/03/26 00:49:51;;;;;;;113.53;57.85;;;;;;;8.10;100.00;102907.13;10152189;28;20476;-67
2022/03/26 00:54:48;;;;;;;108.25;57.95;;;;;;;8.11;100.00;102897.84;10150859;28;20050;-67
2022/03/26 00:59:45;;;;;;;123.55;63.13;;;;;;;8.07;100.00;102907.59;10151769;28;20058;-67
2022/03/26 01:04:41;;;;;;;112.68;59.90;;;;;;;7.93;100.00;102906.28;10146375;28;20717;-67
2022/03/26 01:09:38;;;;;;;116.20;60.75;;;;;;;7.91;100.00;102900.25;10151755;28;20050;-67
2022/03/26 01:14:34;;;;;;;109.25;54.33;;;;;;;7.87;100.00;102896.38;10150195;28;20503;-67
2022/03/26 01:19:31;;;;;;;112.97;58.88;;;;;;;7.83;100.00;102893.31;10151139;28;20104;-67
2022/03/26 01:24:28;;;;;;;107.55;54.90;;;;;;;7.88;100.00;102892.56;10150192;28;20101;-67
2022/03/26 01:29:24;;;;;;;104.53;55.60;;;;;;;7.92;100.00;102888.28;10150997;28;20054;-67
2022/03/26 01:34:24;;;;;;;107.60;54.38;;;;;;;7.86;100.00;102886.53;10149793;28;20544;-67
2022/03/26 01:39:22;;;;;;;108.68;57.53;;;;;;;7.89;100.00;102875.13;10150361;28;20605;-67
2022/03/26 01:44:18;;;;;;;99.65;53.33;;;;;;;7.89;100.00;102873.25;10149625;28;20086;-67
2022/03/26 01:49:15;;;;;;;108.15;53.72;;;;;;;7.73;100.00;102874.09;10149962;28;20046;-67
2022/03/26 01:54:13;;;;;;;105.43;57.10;;;;;;;7.82;100.00;102872.59;10149673;28;20072;-67
2022/03/26 01:59:11;;;;;;;117.03;58.63;;;;;;;7.69;100.00;102879.19;10148026;28;20087;-66
2022/03/26 02:04:08;;;;;;;116.07;60.55;;;;;;;7.69;100.00;102870.19;10149006;28;20083;-66
2022/03/26 02:09:07;;;;;;;116.88;60.70;;;;;;;7.68;100.00;102865.78;10147448;28;20104;-66
2022/03/26 02:14:07;;;;;;;107.45;54.38;;;;;;;7.59;100.00;102863.50;10149470;28;20137;-66
2022/03/26 02:19:07;;;;;;;107.88;54.70;;;;;;;7.60;100.00;102864.31;10131072;28;20074;-67
2022/03/26 02:24:06;;;;;;;111.70;58.55;;;;;;;7.52;100.00;102864.69;10117322;28;20628;-67
2022/03/26 02:29:11;;;;;;;109.95;60.50;;;;;;;7.41;100.00;102866.44;10126171;28;20145;-67
2022/03/26 02:34:08;;;;;;;116.20;62.65;;;;;;;7.41;100.00;102860.97;10132175;28;20070;-67
2022/03/26 02:39:05;;;;;;;114.97;59.05;;;;;;;7.20;100.00;102859.78;10147500;28;20479;-67
2022/03/26 02:44:03;;;;;;;108.90;54.95;;;;;;;7.36;100.00;102859.00;10147944;28;20046;-67
2022/03/26 02:48:59;;;;;;;95.28;50.83;;;;;;;7.34;100.00;102860.31;10149758;28;20149;-67
2022/03/26 02:53:56;;;;;;;109.65;56.95;;;;;;;7.41;100.00;102860.16;10145957;28;20397;-67
2022/03/26 02:58:53;;;;;;;107.63;55.38;;;;;;;7.29;100.00;102858.31;10157275;28;20584;-67
2022/03/26 03:03:52;;;;;;;109.82;55.67;;;;;;;7.29;100.00;102847.44;10142288;28;20042;-67
2022/03/26 03:08:48;;;;;;;95.60;48.83;;;;;;;7.21;100.00;102841.53;10140181;28;20721;-66
2022/03/26 03:13:45;;;;;;;98.03;51.20;;;;;;;7.30;100.00;102838.19;10122519;28;20417;-67
2022/03/26 03:18:42;;;;;;;94.93;46.88;;;;;;;7.15;100.00;102825.13;10153897;28;20527;-67
2022/03/26 03:23:38;;;;;;;87.00;46.85;;;;;;;7.28;100.00;102834.06;10156334;28;20524;-67
2022/03/26 03:28:35;;;;;;;92.90;46.42;;;;;;;7.28;100.00;102845.75;10151967;28;20046;-67
2022/03/26 03:33:31;;;;;;;93.53;48.15;;;;;;;7.24;100.00;102839.19;10145088;28;20066;-66
2022/03/26 03:38:28;;;;;;;99.97;50.75;;;;;;;7.09;100.00;102847.03;10154466;28;20081;-67
2022/03/26 03:43:24;;;;;;;88.07;45.70;;;;;;;7.11;100.00;102839.47;10139693;28;20085;-67
2022/03/26 03:48:21;;;;;;;87.93;45.97;;;;;;;7.11;100.00;102856.59;10154095;28;20050;-67
2022/03/26 03:53:17;;;;;;;96.10;50.22;;;;;;;7.04;100.00;102844.22;10147535;28;20390;-66
2022/03/26 03:58:14;;;;;;;87.85;48.35;;;;;;;7.02;100.00;102835.47;10152433;28;20050;-67
2022/03/26 04:03:10;;;;;;;66.55;34.53;;;;;;;6.86;100.00;102835.16;10126901;28;20130;-67
2022/03/26 04:08:07;;;;;;;97.75;50.58;;;;;;;6.93;100.00;102835.84;10145202;28;20105;-67
2022/03/26 04:13:03;;;;;;;101.32;51.63;;;;;;;6.90;100.00;102836.34;10114490;28;20050;-66
2022/03/26 04:18:00;;;;;;;97.53;49.65;;;;;;;6.80;100.00;102838.84;10133761;28;20101;-67
2022/03/26 04:22:57;;;;;;;99.25;52.30;;;;;;;6.80;100.00;102833.41;10114511;28;20047;-67
2022/03/26 04:27:53;;;;;;;103.40;53.47;;;;;;;6.76;100.00;102831.41;10146262;28;20129;-66
2022/03/26 04:32:50;;;;;;;115.47;57.60;;;;;;;6.78;100.00;102835.53;10153101;28;20097;-66
2022/03/26 04:37:47;;;;;;;110.28;55.13;;;;;;;6.72;100.00;102831.88;10151355;28;20074;-67
2022/03/26 04:42:43;;;;;;;109.68;56.45;;;;;;;6.74;100.00;102824.31;10135207;28;20042;-66
2022/03/26 04:47:40;;;;;;;120.50;59.67;;;;;;;6.70;100.00;102822.31;10151461;28;20050;-67
2022/03/26 04:52:38;;;;;;;109.25;51.72;;;;;;;6.63;100.00;102829.78;10152174;28;20077;-66
2022/03/26 04:57:53;;;;;;;114.07;57.83;;;;;;;6.63;100.00;102827.06;10150818;28;20050;-66
2022/03/26 05:02:49;;;;;;;121.60;60.95;;;;;;;6.65;100.00;102835.81;10146169;28;20476;-66
2022/03/26 05:07:46;;;;;;;120.50;61.80;;;;;;;6.62;100.00;102839.00;10150074;28;20146;-66
2022/03/26 05:12:43;;;;;;;126.07;63.45;;;;;;;6.50;100.00;102845.28;10151775;28;20408;-67
2022/03/26 05:17:41;;;;;;;119.68;60.45;;;;;;;6.50;100.00;102856.16;10149008;28;20089;-67
2022/03/26 05:22:39;;;;;;;132.60;65.57;;;;;;;6.54;100.00;102872.81;10150908;28;20141;-67
2022/03/26 05:27:36;;;;;;;134.45;67.40;;;;;;;6.45;100.00;102861.47;10149645;28;20046;-67
2022/03/26 05:32:32;;;;;;;142.35;65.40;;;;;;;6.38;100.00;102868.09;10151364;28;20046;-68
2022/03/26 05:37:30;;;;;;;127.88;65.20;;;;;;;6.36;100.00;102870.22;10138589;28;20133;-68
2022/03/26 05:42:26;;;;;;;136.73;67.75;;;;;;;6.30;100.00;102867.38;10108360;28;20157;-68
2022/03/26 05:47:24;;;;;;;137.80;66.60;;;;;;;6.33;100.00;102866.06;10143662;28;20097;-69
2022/03/26 05:52:20;;;;;;;140.75;68.72;;;;;;;6.31;100.00;102873.63;10150170;28;20050;-67
2022/03/26 05:57:18;;;;;;;130.35;63.70;;;;;;;6.28;100.00;102857.81;10137885;28;20141;-68
2022/03/26 06:02:15;;;;;;;148.35;70.32;;;;;;;6.29;100.00;102865.75;10144686;28;20150;-68
2022/03/26 06:07:12;;;;;;;144.90;69.40;;;;;;;6.31;100.00;102873.63;10142481;28;20057;-67
2022/03/26 06:12:09;;;;;;;139.32;69.15;;;;;;;6.36;100.00;102876.50;10130324;28;20516;-68
2022/03/26 06:17:05;;;;;;;130.10;64.53;;;;;;;6.46;100.00;102871.28;10141139;28;20077;-68
2022/03/26 06:22:02;;;;;;;140.95;70.43;;;;;;;6.48;100.00;102874.59;10113091;28;20100;-68
2022/03/26 06:26:59;;;;;;;108.80;52.28;;;;;;;6.59;100.00;102885.69;10139143;28;20058;-68
2022/03/26 06:31:56;;;;;;;128.38;67.70;;;;;;;6.63;100.00;102884.16;10140292;28;20081;-67
2022/03/26 06:36:52;;;;;;;126.35;63.30;;;;;;;6.66;100.00;102889.94;10154803;28;20078;-67
2022/03/26 06:41:48;;;;;;;127.15;63.90;;;;;;;6.79;100.00;102888.84;10157092;28;20077;-68
2022/03/26 06:46:45;;;;;;;124.85;62.17;;;;;;;6.89;100.00;102883.66;10155407;28;20077;-67
2022/03/26 06:51:41;;;;;;;121.15;60.08;;;;;;;7.03;100.00;102878.75;10156796;28;20662;-67
2022/03/26 06:56:38;;;;;;;113.25;58.95;;;;;;;7.18;100.00;102889.09;10155540;28;20073;-68
2022/03/26 07:01:34;;;;;;;104.60;51.63;;;;;;;7.24;100.00;102890.88;10156836;28;20097;-68
2022/03/26 07:06:31;;;;;;;108.65;56.38;;;;;;;7.35;100.00;102884.53;10151778;28;20161;-68
2022/03/26 07:11:28;;;;;;;77.80;39.50;;;;;;;7.45;100.00;102889.38;10139129;28;20081;-68
2022/03/26 07:16:24;;;;;;;94.88;49.60;;;;;;;7.53;100.00;102901.75;10154264;28;20129;-67
2022/03/26 07:21:21;;;;;;;106.55;50.40;;;;;;;7.66;100.00;102901.47;10155882;28;20062;-68
2022/03/26 07:26:18;;;;;;;100.68;51.25;;;;;;;7.84;100.00;102907.75;10154614;28;20145;-67
2022/03/26 07:31:15;;;;;;;84.28;44.70;;;;;;;7.98;100.00;102909.06;10155037;28;20077;-68
2022/03/26 07:36:11;;;;;;;86.97;47.22;;;;;;;8.17;100.00;102910.50;10154175;28;20054;-67
2022/03/26 07:41:08;;;;;;;77.22;39.20;;;;;;;8.31;100.00;102907.41;10111417;28;20142;-68
2022/03/26 07:46:04;;;;;;;72.70;36.65;;;;;;;8.45;100.00;102914.22;10137589;28;20113;-68
2022/03/26 07:51:01;;;;;;;67.22;37.25;;;;;;;8.67;100.00;102916.19;10115435;28;20090;-67
2022/03/26 07:55:57;;;;;;;63.55;31.50;;;;;;;8.83;100.00;102913.41;10149313;28;20169;-66
2022/03/26 08:00:54;;;;;;;70.22;35.40;;;;;;;9.08;100.00;102916.72;10115613;28;20074;-67
2022/03/26 08:05:51;;;;;;;68.63;36.47;;;;;;;9.32;100.00;102907.19;10135437;28;20058;-67
2022/03/26 08:10:47;;;;;;;59.65;32.70;;;;;;;9.57;100.00;102892.16;10114453;28;20102;-67
2022/03/26 08:15:43;;;;;;;56.42;33.33;;;;;;;9.84;100.00;102901.16;10131390;28;20046;-66
2022/03/26 08:20:40;;;;;;;52.60;28.20;;;;;;;9.96;100.00;102894.72;10153395;28;20439;-68
2022/03/26 08:30:52;;;;;;;47.90;27.38;;;;;;;10.17;100.00;102877.38;10152980;28;20081;-68
2022/03/26 08:35:48;;;;;;;38.58;20.77;;;;;;;10.28;100.00;102873.66;10148258;28;20070;-68
2022/03/26 08:40:45;;;;;;;43.03;24.05;;;;;;;10.51;100.00;102890.75;10142817;28;20046;-67
2022/03/26 08:45:41;;;;;;;35.97;20.65;;;;;;;10.54;100.00;102884.75;10133554;28;20042;-67
2022/03/26 08:50:38;;;;;;;32.13;17.98;;;;;;;10.60;100.00;102885.59;10151886;28;20042;-68
2022/03/26 08:55:35;;;;;;;29.08;15.30;;;;;;;10.63;100.00;102888.66;10151387;28;20050;-68
2022/03/26 09:00:31;;;;;;;34.63;18.45;;;;;;;10.58;100.00;102896.81;10151968;28;20046;-68
2022/03/26 09:05:29;;;;;;;33.80;19.33;;;;;;;10.83;100.00;102892.56;10150796;28;20042;-68
2022/03/26 09:10:25;;;;;;;38.42;21.02;;;;;;;11.06;100.00;102886.63;10151879;28;20134;-69
2022/03/26 09:15:21;;;;;;;36.35;20.00;;;;;;;11.32;100.00;102895.75;10147300;28;20113;-68
2022/03/26 09:20:18;;;;;;;36.10;17.88;;;;;;;11.43;100.00;102887.59;10151830;28;20737;-69
2022/03/26 09:25:17;;;;;;;34.05;19.95;;;;;;;11.52;100.00;102878.56;10149723;28;20523;-68
2022/03/26 09:30:15;;;;;;;28.95;15.95;;;;;;;11.53;100.00;102891.19;10150617;28;20101;-68
2022/03/26 09:35:13;;;;;;;26.00;15.55;;;;;;;11.77;100.00;102885.16;10150533;28;20047;-69
2022/03/26 09:40:11;;;;;;;26.77;13.77;;;;;;;11.90;100.00;102884.63;10103867;28;20089;-69
2022/03/26 09:45:09;;;;;;;25.77;13.40;;;;;;;12.04;100.00;102882.16;10127072;28;20532;-68
2022/03/26 09:50:07;;;;;;;28.17;14.63;;;;;;;12.23;100.00;102885.19;10150104;28;20105;-69
2022/03/26 09:55:04;;;;;;;23.83;13.55;;;;;;;12.32;100.00;102891.78;10144411;28;20125;-68
2022/03/26 10:00:01;;;;;;;21.20;13.18;;;;;;;12.25;100.00;102902.16;10151746;28;20573;-68
2022/03/26 10:04:57;;;;;;;22.33;13.55;;;;;;;12.38;100.00;102896.13;10147352;28;20134;-69
2022/03/26 10:09:55;;;;;;;22.73;11.32;;;;;;;12.22;100.00;102905.47;10150032;28;20401;-69
2022/03/26 10:14:57;;;;;;;22.67;13.10;;;;;;;12.20;100.00;102904.94;10148797;28;20505;-68
2022/03/26 10:19:59;;;;;;;21.47;10.97;;;;;;;12.23;100.00;102904.41;10136774;28;20141;-69
2022/03/26 10:24:58;;;;;;;20.65;10.95;;;;;;;12.32;100.00;102897.25;10124376;28;20565;-68
2022/03/26 10:29:56;;;;;;;18.25;11.30;;;;;;;12.12;100.00;102897.28;10148986;28;20085;-67
2022/03/26 10:34:53;;;;;;;24.17;12.88;;;;;;;12.02;100.00;102905.47;10148640;28;20042;-67
2022/03/26 10:39:49;;;;;;;21.00;12.30;;;;;;;12.09;100.00;102903.28;10148640;28;20137;-67
2022/03/26 10:44:48;;;;;;;16.27;11.23;;;;;;;12.15;100.00;102899.44;10144416;28;20050;-67
2022/03/26 10:49:44;;;;;;;22.35;12.35;;;;;;;12.37;100.00;102904.63;10149261;28;20070;-68
2022/03/26 10:54:41;;;;;;;22.58;11.52;;;;;;;12.39;100.00;102908.75;10136472;28;20137;-67
2022/03/26 10:59:37;;;;;;;19.70;10.43;;;;;;;12.34;100.00;102900.50;10148915;28;20078;-67
2022/03/26 11:04:34;;;;;;;17.58;8.60;;;;;;;12.52;100.00;102909.28;10130221;28;20042;-68
2022/03/26 11:09:31;;;;;;;16.95;8.98;;;;;;;12.65;100.00;102914.19;10148641;28;20141;-67
2022/03/26 11:14:34;;;;;;;18.33;9.50;;;;;;;12.60;100.00;102904.06;10132014;28;20073;-66
2022/03/26 11:19:52;;;;;;;15.13;9.90;;;;;;;13.03;100.00;102903.63;10151395;28;20077;-68
2022/03/26 11:24:55;;;;;;;16.90;9.82;;;;;;;13.15;100.00;102914.28;10129714;28;20054;-68
2022/03/26 11:30:34;;;;;;;18.80;10.98;;;;;;;12.93;100.00;102906.44;10126021;28;20057;-67
2022/03/26 11:35:32;;;;;;;18.15;10.05;;;;;;;13.29;100.00;102898.03;10110231;28;20058;-68
2022/03/26 11:40:46;;;;;;;14.48;9.65;;;;;;;13.03;100.00;102887.97;10154479;28;20152;-68
2022/03/26 11:51:24;;;;;;;18.10;10.85;;;;;;;12.90;100.00;102906.97;10138442;28;20169;-68
2022/03/26 11:56:22;;;;;;;20.05;11.30;;;;;;;12.77;100.00;102903.72;10153246;28;20050;-67
2022/03/26 12:01:20;;;;;;;17.98;10.25;;;;;;;13.00;100.00;102895.97;10153894;28;20101;-68
2022/03/26 12:06:37;;;;;;;17.70;10.25;;;;;;;13.11;100.00;102894.81;10133288;28;20097;-67
2022/03/26 12:11:34;;;;;;;15.38;9.85;;;;;;;12.91;100.00;102903.13;10115088;28;20055;-69
2022/03/26 12:16:49;;;;;;;14.05;9.70;;;;;;;13.04;100.00;102905.25;10140671;28;20532;-68
2022/03/26 12:21:49;;;;;;;16.83;10.25;;;;;;;13.01;100.00;102903.09;10154072;28;20062;-67
2022/03/26 12:26:50;;;;;;;17.85;10.27;;;;;;;13.01;100.00;102903.09;10127873;28;20049;-67
2022/03/26 12:31:50;;;;;;;13.68;9.27;;;;;;;12.57;100.00;102887.31;10139271;28;20059;-66
2022/03/26 12:36:47;;;;;;;15.93;9.02;;;;;;;12.62;100.00;102890.03;10112360;28;20062;-68
2022/03/26 12:41:47;;;;;;;16.15;8.50;;;;;;;12.82;100.00;102884.47;10121466;28;20042;-68
2022/03/26 12:46:46;;;;;;;13.77;7.13;;;;;;;12.58;100.00;102880.75;10142336;28;20572;-68
2022/03/26 12:51:43;;;;;;;16.92;8.40;;;;;;;13.70;100.00;102873.06;10151963;28;20603;-67
2022/03/26 12:56:42;;;;;;;10.35;6.60;;;;;;;13.96;100.00;102879.97;10151416;28;20092;-68
2022/03/26 13:01:39;;;;;;;14.45;7.32;;;;;;;13.84;100.00;102868.53;10124099;28;20527;-69
2022/03/26 13:06:36;;;;;;;18.23;9.10;;;;;;;13.75;100.00;102867.50;10132378;28;20057;-66
2022/03/26 13:11:33;;;;;;;12.73;6.57;;;;;;;13.67;100.00;102880.75;10139847;28;21048;-66
2022/03/26 13:16:32;;;;;;;11.10;6.88;;;;;;;14.93;100.00;102859.69;10141061;28;20074;-67
2022/03/26 13:21:30;;;;;;;11.48;5.75;;;;;;;16.39;100.00;102869.00;10141047;28;20046;-67
2022/03/26 13:26:50;;;;;;;13.00;7.20;;;;;;;16.41;100.00;102877.81;10134377;28;20101;-66
2022/03/26 13:31:59;;;;;;;14.27;6.63;;;;;;;15.49;100.00;102887.59;10138274;28;20524;-67
2022/03/26 13:37:10;;;;;;;13.15;6.22;;;;;;;15.13;100.00;102886.16;10140360;28;20069;-67
2022/03/26 13:42:11;;;;;;;12.57;5.70;;;;;;;14.52;100.00;102887.69;10135182;28;20144;-67
2022/03/26 13:47:20;;;;;;;13.65;5.03;;;;;;;14.77;100.00;102888.53;10135355;28;22122;-67
2022/03/26 13:52:30;;;;;;;12.98;5.13;;;;;;;16.12;100.00;102881.63;10143343;28;20516;-68
2022/03/26 13:57:35;;;;;;;9.93;3.75;;;;;;;17.06;100.00;102878.72;10149116;28;20133;-67
2022/03/26 14:02:35;;;;;;;10.00;5.03;;;;;;;16.61;100.00;102896.72;10150501;28;20050;-67
2022/03/26 14:07:32;;;;;;;9.57;5.13;;;;;;;17.19;97.41;102900.00;10148528;28;20046;-67
2022/03/26 14:12:28;;;;;;;9.27;4.55;;;;;;;16.00;100.00;102892.34;10150517;28;20054;-68
2022/03/26 14:17:25;;;;;;;8.25;4.03;;;;;;;15.35;100.00;102891.09;10149179;28;20100;-68
2022/03/26 14:22:21;;;;;;;8.70;4.28;;;;;;;15.85;100.00;102885.13;10180602;28;20076;-68
2022/03/26 14:27:18;;;;;;;8.48;4.65;;;;;;;16.60;100.00;102884.03;10153052;28;20621;-67
2022/03/26 14:32:14;;;;;;;8.30;3.35;;;;;;;15.30;100.00;102885.66;10149996;28;20141;-67
2022/03/26 14:37:11;;;;;;;9.50;4.18;;;;;;;14.38;100.00;102892.25;10129727;28;20054;-68
2022/03/26 14:42:08;;;;;;;9.02;4.05;;;;;;;14.17;100.00;102891.63;10122212;28;20142;-66
2022/03/26 14:47:05;;;;;;;9.05;4.18;;;;;;;13.67;100.00;102891.75;10131599;28;20050;-67
2022/03/26 14:52:02;;;;;;;10.00;4.20;;;;;;;13.66;100.00;102901.09;10150467;28;20921;-67
2022/03/26 14:56:58;;;;;;;9.57;3.83;;;;;;;13.77;100.00;102898.28;10150730;28;20100;-67
2022/03/26 15:01:55;;;;;;;8.52;4.18;;;;;;;13.48;100.00;102907.25;10145798;28;21797;-66
2022/03/26 15:06:52;;;;;;;11.65;4.07;;;;;;;12.88;100.00;102900.94;10151837;28;20046;-67
2022/03/26 15:11:48;;;;;;;12.43;4.63;;;;;;;13.15;100.00;102901.38;10154900;28;20108;-67
2022/03/26 15:16:45;;;;;;;9.82;4.60;;;;;;;12.94;100.00;102902.56;10145594;28;20077;-67
2022/03/26 15:21:41;;;;;;;8.73;4.22;;;;;;;13.01;100.00;102903.09;10156017;28;20145;-67
2022/03/26 15:26:39;;;;;;;7.80;4.72;;;;;;;12.79;100.00;102907.03;10155126;28;20069;-67
2022/03/26 15:31:37;;;;;;;11.73;5.03;;;;;;;12.66;100.00;102899.38;10155509;28;20116;-67
2022/03/26 15:36:34;;;;;;;8.93;4.07;;;;;;;12.17;100.00;102900.00;10154478;28;20052;-66
2022/03/26 15:41:31;;;;;;;6.85;4.03;;;;;;;11.94;100.00;102885.75;10155270;28;20130;-66
2022/03/26 15:46:28;;;;;;;6.57;3.38;;;;;;;12.26;100.00;102898.34;10153885;28;20074;-66
2022/03/26 15:51:25;;;;;;;11.52;4.25;;;;;;;12.29;100.00;102903.28;10118507;28;20051;-66
2022/03/26 15:56:22;;;;;;;9.50;3.70;;;;;;;12.25;100.00;102891.19;10146855;28;20050;-66
2022/03/26 16:01:18;;;;;;;8.63;4.90;;;;;;;12.13;100.00;102904.38;10153525;28;20650;-67
2022/03/26 16:06:15;;;;;;;8.90;4.00;;;;;;;12.63;100.00;102902.69;10152400;28;20133;-66
2022/03/26 16:11:12;;;;;;;7.55;3.60;;;;;;;13.15;100.00;102895.88;10154190;28;20078;-67
2022/03/26 16:16:08;;;;;;;8.77;4.00;;;;;;;12.94;100.00;102908.88;10152408;28;20480;-67
2022/03/26 16:21:05;;;;;;;8.05;3.45;;;;;;;12.63;100.00;102913.66;10153634;28;20134;-66
2022/03/26 16:26:01;;;;;;;7.82;4.55;;;;;;;12.31;100.00;102923.03;10148291;28;20054;-66
2022/03/26 16:30:58;;;;;;;9.18;3.63;;;;;;;11.76;100.00;102927.34;10153304;28;20078;-66
2022/03/26 16:35:54;;;;;;;10.75;4.53;;;;;;;11.44;100.00;102922.94;10135183;28;20050;-66
2022/03/26 16:40:51;;;;;;;6.95;3.08;;;;;;;11.16;100.00;102919.56;10152744;28;20105;-66
2022/03/26 16:45:47;;;;;;;8.90;4.93;;;;;;;11.23;100.00;102934.88;10152137;28;20374;-66
2022/03/26 16:50:45;;;;;;;9.50;4.40;;;;;;;11.21;100.00;102931.59;10152327;28;20097;-66
2022/03/26 16:55:41;;;;;;;7.45;3.55;;;;;;;11.01;100.00;102927.69;10151812;28;20105;-66
2022/03/26 17:00:37;;;;;;;7.07;3.80;;;;;;;10.93;100.00;102933.66;10152503;28;20529;-66
2022/03/26 17:05:34;;;;;;;12.38;3.97;;;;;;;10.57;100.00;102936.19;10146687;28;20074;-66
2022/03/26 17:10:30;;;;;;;10.43;4.25;;;;;;;10.41;100.00;102934.44;10112298;28;20047;-66
2022/03/26 17:15:27;;;;;;;9.15;5.13;;;;;;;10.16;100.00;102938.59;10129088;28;21791;-68
2022/03/26 17:20:25;;;;;;;9.43;5.07;;;;;;;10.03;100.00;102939.03;10151931;28;20100;-66
2022/03/26 17:25:22;;;;;;;10.93;5.72;;;;;;;9.92;100.00;102945.50;10151011;28;20611;-66
2022/03/26 17:30:19;;;;;;;12.18;5.85;;;;;;;10.02;100.00;102945.56;10151851;28;20519;-65
2022/03/26 17:35:17;;;;;;;8.65;4.82;;;;;;;9.56;100.00;102964.22;10142678;28;20094;-65
2022/03/26 17:40:13;;;;;;;10.43;4.82;;;;;;;9.46;100.00;102963.03;10149197;28;20085;-66
2022/03/26 17:45:11;;;;;;;9.52;4.72;;;;;;;9.43;100.00;102963.56;10127837;28;20053;-65
2022/03/26 17:50:08;;;;;;;9.55;4.65;;;;;;;9.50;100.00;102970.75;10141688;28;20089;-65
2022/03/26 17:55:05;;;;;;;11.80;5.07;;;;;;;9.32;100.00;102967.25;10139087;28;20074;-67
2022/03/26 18:00:03;;;;;;;10.73;4.78;;;;;;;9.08;100.00;102969.41;10150353;28;20057;-67
2022/03/26 18:05:01;;;;;;;9.73;4.43;;;;;;;8.93;100.00;102967.28;10150746;28;20046;-67
2022/03/26 18:09:57;;;;;;;14.93;5.72;;;;;;;8.91;100.00;102983.09;10149822;28;20101;-67
2022/03/26 18:14:53;;;;;;;9.38;4.70;;;;;;;8.85;100.00;102995.00;10148871;28;20452;-67
2022/03/26 18:19:50;;;;;;;10.35;5.65;;;;;;;8.88;100.00;102983.56;10150131;28;20085;-66
2022/03/26 18:24:47;;;;;;;12.45;5.47;;;;;;;8.79;100.00;102985.06;10135205;28;20563;-67
2022/03/26 18:29:44;;;;;;;14.00;6.40;;;;;;;8.79;100.00;102996.81;10158221;28;20082;-67
2022/03/26 18:34:40;;;;;;;10.32;4.90;;;;;;;8.52;100.00;103001.31;10140243;28;20121;-66
2022/03/26 18:39:37;;;;;;;9.32;4.40;;;;;;;8.55;100.00;103001.63;10158651;28;20141;-67
2022/03/26 18:44:34;;;;;;;8.98;4.10;;;;;;;8.36;100.00;103005.66;10156700;28;20141;-66
2022/03/26 18:49:31;;;;;;;14.00;5.63;;;;;;;8.47;100.00;103003.94;10147697;28;20054;-65
2022/03/26 18:54:27;;;;;;;11.32;5.47;;;;;;;8.22;100.00;103005.97;10144173;28;20077;-66
2022/03/26 18:59:24;;;;;;;12.63;5.22;;;;;;;8.00;100.00;103027.63;10156341;28;20050;-66
2022/03/26 19:04:20;;;;;;;11.13;4.65;;;;;;;8.02;100.00;103019.22;10156349;28;20076;-66
2022/03/26 19:09:17;;;;;;;12.45;5.20;;;;;;;7.91;100.00;103039.16;10139506;28;20517;-67
2022/03/26 19:14:14;;;;;;;10.13;4.53;;;;;;;7.85;100.00;103034.69;10125842;28;20126;-66
2022/03/26 19:19:10;;;;;;;11.68;4.90;;;;;;;7.88;100.00;103032.31;10155668;28;20050;-66
2022/03/26 19:24:06;;;;;;;13.50;4.55;;;;;;;7.73;100.00;103043.75;10154957;28;20116;-65
2022/03/26 19:34:21;;;;;;;12.70;5.28;;;;;;;7.75;100.00;103047.03;10153618;28;20085;-66
2022/03/26 19:39:17;;;;;;;15.48;6.05;;;;;;;7.80;100.00;103055.31;10155620;28;20460;-67
2022/03/26 19:44:13;;;;;;;12.80;5.57;;;;;;;7.78;100.00;103060.16;10143874;28;20544;-67
2022/03/26 19:49:12;;;;;;;15.25;6.40;;;;;;;7.77;100.00;103061.25;10144973;28;20085;-66
2022/03/26 19:54:09;;;;;;;13.88;4.90;;;;;;;7.57;100.00;103066.28;10135347;28;20121;-66
2022/03/26 19:59:06;;;;;;;16.23;7.25;;;;;;;7.68;100.00;103073.59;10154226;28;20085;-66
2022/03/26 20:04:03;;;;;;;13.68;5.70;;;;;;;7.59;100.00;103075.03;10154274;28;20475;-66
2022/03/26 20:09:00;;;;;;;16.48;5.22;;;;;;;7.60;100.00;103082.13;10153780;28;20042;-67
2022/03/26 20:13:57;;;;;;;16.33;5.68;;;;;;;7.45;100.00;103079.06;10152764;28;20042;-67
2022/03/26 20:18:55;;;;;;;16.67;4.95;;;;;;;7.37;100.00;103082.97;10153176;28;20077;-66
2022/03/26 20:23:52;;;;;;;14.15;4.70;;;;;;;7.29;100.00;103084.19;10152875;28;20054;-66
2022/03/26 20:28:48;;;;;;;11.60;5.82;;;;;;;7.34;100.00;103095.19;10153069;28;20145;-67
2022/03/26 20:33:46;;;;;;;12.25;5.38;;;;;;;7.29;100.00;103092.34;10124414;28;20070;-65
2022/03/26 20:38:44;;;;;;;17.10;5.28;;;;;;;7.24;100.00;103102.25;10149854;28;20062;-65
2022/03/26 20:43:40;;;;;;;19.17;6.97;;;;;;;7.26;100.00;103097.41;10147196;28;20129;-67
2022/03/26 20:48:37;;;;;;;13.43;5.35;;;;;;;7.22;100.00;103090.78;10137197;28;20539;-67
2022/03/26 20:53:34;;;;;;;17.55;5.53;;;;;;;7.24;100.00;103094.94;10152216;28;20081;-66
2022/03/26 20:58:30;;;;;;;14.02;4.55;;;;;;;7.22;100.00;103102.53;10132986;28;20074;-67
2022/03/26 21:03:27;;;;;;;16.58;5.20;;;;;;;7.16;100.00;103108.91;10116605;28;20112;-66
2022/03/26 21:08:24;;;;;;;17.73;5.63;;;;;;;7.17;100.00;103121.44;10149238;28;20054;-66
2022/03/26 21:13:21;;;;;;;12.23;5.10;;;;;;;7.11;100.00;103117.75;10152469;28;20100;-67
2022/03/26 21:18:17;;;;;;;25.92;5.65;;;;;;;6.97;100.00;103119.06;10145094;28;20108;-66
2022/03/26 21:23:14;;;;;;;17.23;5.28;;;;;;;7.04;100.00;103116.22;10151109;28;20054;-66
2022/03/26 21:28:21;;;;;;;18.00;5.75;;;;;;;6.94;100.00;103122.25;10147715;28;20097;-66
2022/03/26 21:33:19;;;;;;;22.60;6.07;;;;;;;6.75;100.00;103124.22;10143924;28;20051;-66
2022/03/26 21:38:16;;;;;;;16.67;4.65;;;;;;;6.71;100.00;103134.75;10148124;28;20050;-66
2022/03/26 21:43:14;;;;;;;23.50;6.13;;;;;;;6.68;100.00;103123.50;10145235;28;20050;-67
2022/03/26 21:48:11;;;;;;;19.70;6.72;;;;;;;6.77;100.00;103130.25;10131988;28;20054;-66
2022/03/26 21:53:09;;;;;;;18.85;7.10;;;;;;;6.73;100.00;103127.19;10137286;28;20050;-66
2022/03/26 21:58:06;;;;;;;16.15;6.00;;;;;;;6.57;100.00;103140.59;10137852;28;20097;-66
2022/03/26 22:03:03;;;;;;;14.80;5.45;;;;;;;6.50;100.00;103138.81;10143577;28;20090;-65
2022/03/26 22:08:00;;;;;;;14.32;5.45;;;;;;;6.49;100.00;103131.69;10137123;28;20149;-68
2022/03/26 22:12:56;;;;;;;15.10;5.32;;;;;;;6.50;100.00;103149.69;10146868;28;20530;-67
2022/03/26 22:17:53;;;;;;;18.35;5.97;;;;;;;6.48;100.00;103151.81;10144791;28;20085;-67
2022/03/26 22:22:51;;;;;;;18.02;6.28;;;;;;;6.46;100.00;103147.66;10146100;28;20069;-67
2022/03/26 22:27:48;;;;;;;18.92;6.32;;;;;;;6.43;100.00;103154.38;10135917;28;20559;-67
2022/03/26 22:32:45;;;;;;;22.45;7.07;;;;;;;6.26;100.00;103153.34;10148409;28;20069;-67